createdAt,value
2018-12-19T00:00:55.804Z,1006.11
2018-12-19T00:01:55.824Z,1006.09
2018-12-19T00:02:55.818Z,1006.09
2018-12-19T00:03:55.820Z,1006.02
2018-12-19T00:04:55.822Z,1006.02
2018-12-19T00:05:55.826Z,1005.99
2018-12-19T00:06:55.853Z,1005.92
2018-12-19T00:07:55.819Z,1005.91
2018-12-19T00:08:55.827Z,1005.88
2018-12-19T00:09:55.836Z,1005.89
2018-12-19T00:10:55.832Z,1005.87
2018-12-19T00:11:55.839Z,1005.90
2018-12-19T00:12:55.838Z,1005.84
2018-12-19T00:13:55.841Z,1005.78
2018-12-19T00:14:55.847Z,1005.73
2018-12-19T00:15:55.847Z,1005.76
2018-12-19T00:16:55.863Z,1005.73
2018-12-19T00:17:55.850Z,1005.72
2018-12-19T00:18:55.860Z,1005.66
2018-12-19T00:19:55.840Z,1005.65
2018-12-19T00:20:55.854Z,1005.62
2018-12-19T00:21:55.855Z,1005.58
2018-12-19T00:22:55.863Z,1005.54
2018-12-19T00:23:55.867Z,1005.51
2018-12-19T00:24:55.872Z,1005.46
2018-12-19T00:25:55.870Z,1005.47
2018-12-19T00:26:55.882Z,1005.46
2018-12-19T00:27:55.867Z,1005.47
2018-12-19T00:28:55.875Z,1005.44
2018-12-19T00:29:55.881Z,1005.45
2018-12-19T00:30:55.877Z,1005.39
2018-12-19T00:31:55.873Z,1005.41
2018-12-19T00:32:55.886Z,1005.38
2018-12-19T00:33:55.892Z,1005.40
2018-12-19T00:34:55.896Z,1005.39
2018-12-19T00:35:55.891Z,1005.44
2018-12-19T00:36:55.896Z,1005.42
2018-12-19T00:37:55.901Z,1005.39
2018-12-19T00:38:55.901Z,1005.36
2018-12-19T00:39:55.915Z,1005.35
2018-12-19T00:40:55.898Z,1005.37
2018-12-19T00:41:55.906Z,1005.39
2018-12-19T00:42:55.901Z,1005.33
2018-12-19T00:43:55.908Z,1005.33
2018-12-19T00:44:55.907Z,1005.31
2018-12-19T00:45:55.916Z,1005.22
2018-12-19T00:46:55.924Z,1005.28
2018-12-19T00:47:55.921Z,1005.31
2018-12-19T00:48:55.927Z,1005.28
2018-12-19T00:49:55.941Z,1005.35
2018-12-19T00:50:55.926Z,1005.32
2018-12-19T00:51:55.925Z,1005.35
2018-12-19T00:52:55.931Z,1005.36
2018-12-19T00:53:55.938Z,1005.35
2018-12-19T00:54:55.936Z,1005.34
2018-12-19T00:55:55.949Z,1005.38
2018-12-19T00:56:55.937Z,1005.39
2018-12-19T00:57:55.945Z,1005.39
2018-12-19T00:58:55.946Z,1005.42
2018-12-19T00:59:55.950Z,1005.43
2018-12-19T01:01:55.953Z,1005.45
2018-12-19T01:02:55.977Z,1005.47
2018-12-19T01:03:55.962Z,1005.45
2018-12-19T01:04:55.962Z,1005.50
2018-12-19T01:05:55.957Z,1005.49
2018-12-19T01:06:55.966Z,1005.47
2018-12-19T01:07:55.961Z,1005.49
2018-12-19T01:08:55.975Z,1005.46
2018-12-19T01:09:55.974Z,1005.43
2018-12-19T01:10:55.987Z,1005.41
2018-12-19T01:11:55.973Z,1005.47
2018-12-19T01:13:56.002Z,1005.37
2018-12-19T01:14:56.080Z,1005.32
2018-12-19T01:15:55.993Z,1005.29
2018-12-19T01:16:56.005Z,1005.33
2018-12-19T01:17:55.999Z,1005.25
2018-12-19T01:18:55.998Z,1005.30
2018-12-19T01:19:56.005Z,1005.28
2018-12-19T01:20:56.009Z,1005.24
2018-12-19T01:22:56.007Z,1005.22
2018-12-19T01:23:57.550Z,1005.20
2018-12-19T01:24:56.232Z,1005.20
2018-12-19T01:25:56.043Z,1005.22
2018-12-19T01:26:56.023Z,1005.18
2018-12-19T01:27:56.042Z,1005.23
2018-12-19T01:28:56.030Z,1005.21
2018-12-19T01:29:56.037Z,1005.17
2018-12-19T01:30:56.035Z,1005.13
2018-12-19T01:31:56.037Z,1005.10
2018-12-19T01:32:56.045Z,1005.10
2018-12-19T01:33:56.047Z,1005.05
2018-12-19T01:34:56.043Z,1005.05
2018-12-19T01:35:56.044Z,1005.07
2018-12-19T01:36:56.066Z,1005.06
2018-12-19T01:37:56.135Z,1005.02
2018-12-19T01:38:56.048Z,1005.05
2018-12-19T01:39:56.134Z,1005.00
2018-12-19T01:40:56.068Z,1005.00
2018-12-19T01:41:56.068Z,1005.02
2018-12-19T01:42:56.068Z,1005.00
2018-12-19T01:43:56.070Z,1004.95
2018-12-19T01:44:56.082Z,1004.90
2018-12-19T01:45:56.086Z,1004.88
2018-12-19T01:46:56.085Z,1004.87
2018-12-19T01:47:56.083Z,1004.91
2018-12-19T01:48:56.085Z,1004.92
2018-12-19T01:49:56.086Z,1004.96
2018-12-19T01:50:56.087Z,1004.88
2018-12-19T01:51:56.097Z,1004.94
2018-12-19T01:52:56.098Z,1004.92
2018-12-19T01:53:56.097Z,1004.98
2018-12-19T01:57:56.105Z,1004.78
2018-12-19T01:58:56.118Z,1004.76
2018-12-19T01:59:56.114Z,1004.79
2018-12-19T02:00:56.131Z,1004.78
2018-12-19T02:01:56.124Z,1004.82
2018-12-19T02:02:56.129Z,1004.85
2018-12-19T02:03:56.126Z,1004.88
2018-12-19T02:04:56.128Z,1004.87
2018-12-19T02:05:56.128Z,1004.89
2018-12-19T02:06:56.139Z,1004.89
2018-12-19T02:07:56.137Z,1004.87
2018-12-19T02:08:56.138Z,1004.77
2018-12-19T02:09:56.145Z,1004.76
2018-12-19T02:10:56.150Z,1004.78
2018-12-19T02:11:56.150Z,1004.83
2018-12-19T02:12:56.139Z,1004.80
2018-12-19T02:13:56.184Z,1004.82
2018-12-19T02:14:56.153Z,1004.87
2018-12-19T02:15:56.258Z,1004.76
2018-12-19T02:16:56.165Z,1004.76
2018-12-19T02:17:56.168Z,1004.74
2018-12-19T02:18:56.179Z,1004.74
2018-12-19T02:19:56.165Z,1004.80
2018-12-19T02:20:56.165Z,1004.71
2018-12-19T02:21:56.213Z,1004.77
2018-12-19T02:22:56.182Z,1004.78
2018-12-19T02:23:56.188Z,1004.81
2018-12-19T02:24:56.195Z,1004.84
2018-12-19T02:25:56.219Z,1004.81
2018-12-19T02:26:56.203Z,1004.81
2018-12-19T02:27:56.194Z,1004.90
2018-12-19T02:28:56.240Z,1004.84
2018-12-19T02:29:56.201Z,1004.82
2018-12-19T02:30:56.206Z,1004.71
2018-12-19T02:31:56.220Z,1004.81
2018-12-19T02:32:56.234Z,1004.85
2018-12-19T02:33:56.211Z,1004.95
2018-12-19T02:34:56.215Z,1004.97
2018-12-19T02:35:56.217Z,1004.99
2018-12-19T02:36:56.225Z,1004.97
2018-12-19T02:37:56.233Z,1004.98
2018-12-19T02:38:56.457Z,1005.03
2018-12-19T02:39:56.231Z,1005.03
2018-12-19T02:40:56.229Z,1005.10
2018-12-19T02:41:56.233Z,1005.08
2018-12-19T02:42:56.276Z,1005.08
2018-12-19T02:43:56.247Z,1005.12
2018-12-19T02:44:56.241Z,1005.12
2018-12-19T02:45:56.245Z,1005.09
2018-12-19T02:46:56.243Z,1005.08
2018-12-19T02:47:56.256Z,1005.13
2018-12-19T02:48:56.259Z,1005.15
2018-12-19T02:49:56.259Z,1005.09
2018-12-19T02:50:56.261Z,1005.11
2018-12-19T02:51:56.257Z,1005.09
2018-12-19T02:52:56.267Z,1005.08
2018-12-19T02:53:56.274Z,1005.07
2018-12-19T02:54:56.273Z,1005.08
2018-12-19T02:55:56.271Z,1005.05
2018-12-19T02:56:56.274Z,1005.03
2018-12-19T02:57:56.292Z,1004.97
2018-12-19T02:58:56.296Z,1005.03
2018-12-19T02:59:56.289Z,1004.95
2018-12-19T03:00:56.292Z,1005.02
2018-12-19T03:01:56.374Z,1004.98
2018-12-19T03:02:56.304Z,1005.00
2018-12-19T03:03:56.298Z,1004.97
2018-12-19T03:04:56.307Z,1004.92
2018-12-19T03:05:56.307Z,1004.92
2018-12-19T03:06:56.306Z,1004.95
2018-12-19T03:07:56.312Z,1004.84
2018-12-19T03:08:56.313Z,1004.88
2018-12-19T03:09:56.330Z,1004.87
2018-12-19T03:10:56.321Z,1004.87
2018-12-19T03:11:56.327Z,1004.96
2018-12-19T03:12:56.332Z,1004.90
2018-12-19T03:13:56.328Z,1004.95
2018-12-19T03:14:56.332Z,1004.96
2018-12-19T03:15:56.345Z,1005.04
2018-12-19T03:16:56.335Z,1005.06
2018-12-19T03:17:56.341Z,1005.03
2018-12-19T03:18:56.346Z,1004.95
2018-12-19T03:19:56.367Z,1005.01
2018-12-19T03:20:56.353Z,1004.97
2018-12-19T03:21:56.355Z,1004.97
2018-12-19T03:22:56.362Z,1005.02
2018-12-19T03:23:56.371Z,1004.97
2018-12-19T03:24:56.369Z,1004.98
2018-12-19T03:25:56.370Z,1004.96
2018-12-19T03:26:56.372Z,1004.96
2018-12-19T03:27:56.379Z,1004.84
2018-12-19T03:28:56.380Z,1004.83
2018-12-19T03:29:56.389Z,1004.81
2018-12-19T03:30:56.400Z,1004.83
2018-12-19T03:31:56.380Z,1004.79
2018-12-19T03:32:56.391Z,1004.83
2018-12-19T03:33:56.395Z,1004.86
2018-12-19T03:34:56.392Z,1004.86
2018-12-19T03:35:56.402Z,1004.86
2018-12-19T03:36:56.400Z,1004.92
2018-12-19T03:37:56.405Z,1004.90
2018-12-19T03:38:56.418Z,1004.86
2018-12-19T03:39:56.411Z,1004.94
2018-12-19T03:40:56.403Z,1004.96
2018-12-19T03:41:56.420Z,1004.96
2018-12-19T03:42:56.422Z,1005.04
2018-12-19T03:43:56.424Z,1005.00
2018-12-19T03:44:56.417Z,1004.90
2018-12-19T03:45:56.429Z,1004.99
2018-12-19T03:46:56.434Z,1005.00
2018-12-19T03:47:56.443Z,1004.91
2018-12-19T03:48:56.440Z,1004.92
2018-12-19T03:49:56.446Z,1004.90
2018-12-19T03:50:56.446Z,1004.84
2018-12-19T03:51:56.441Z,1004.86
2018-12-19T03:52:56.453Z,1004.85
2018-12-19T03:53:56.454Z,1004.83
2018-12-19T03:54:56.460Z,1004.78
2018-12-19T03:55:56.469Z,1004.78
2018-12-19T03:56:56.468Z,1004.73
2018-12-19T03:57:56.470Z,1004.81
2018-12-19T03:58:56.472Z,1004.71
2018-12-19T03:59:56.469Z,1004.67
2018-12-19T04:00:56.477Z,1004.69
2018-12-19T04:01:56.485Z,1004.72
2018-12-19T04:02:56.480Z,1004.74
2018-12-19T04:03:56.478Z,1004.71
2018-12-19T04:04:56.494Z,1004.68
2018-12-19T04:05:56.492Z,1004.58
2018-12-19T04:06:56.499Z,1004.65
2018-12-19T04:08:56.505Z,1004.55
2018-12-19T04:09:57.967Z,1004.50
2018-12-19T04:10:56.509Z,1004.45
2018-12-19T04:11:56.511Z,1004.48
2018-12-19T04:12:56.516Z,1004.47
2018-12-19T04:13:56.528Z,1004.51
2018-12-19T04:14:56.527Z,1004.42
2018-12-19T04:15:56.538Z,1004.48
2018-12-19T04:16:56.624Z,1004.47
2018-12-19T04:17:56.537Z,1004.49
2018-12-19T04:18:56.542Z,1004.47
2018-12-19T04:19:56.542Z,1004.46
2018-12-19T04:20:56.643Z,1004.42
2018-12-19T04:21:56.553Z,1004.44
2018-12-19T04:22:56.561Z,1004.40
2018-12-19T04:23:56.564Z,1004.38
2018-12-19T04:24:56.563Z,1004.31
2018-12-19T04:25:56.565Z,1004.30
2018-12-19T04:26:56.579Z,1004.28
2018-12-19T04:27:56.578Z,1004.29
2018-12-19T04:28:56.577Z,1004.29
2018-12-19T04:29:56.579Z,1004.20
2018-12-19T04:30:56.582Z,1004.25
2018-12-19T04:31:56.585Z,1004.22
2018-12-19T04:32:56.594Z,1004.27
2018-12-19T04:33:56.611Z,1004.23
2018-12-19T04:34:56.602Z,1004.23
2018-12-19T04:35:56.646Z,1004.24
2018-12-19T04:36:56.609Z,1004.19
2018-12-19T04:37:56.615Z,1004.14
2018-12-19T04:38:56.614Z,1004.15
2018-12-19T04:39:56.614Z,1004.15
2018-12-19T04:40:56.623Z,1004.16
2018-12-19T04:41:56.626Z,1004.15
2018-12-19T04:42:56.635Z,1004.10
2018-12-19T04:43:56.635Z,1004.08
2018-12-19T04:44:56.648Z,1004.05
2018-12-19T04:45:56.641Z,1004.03
2018-12-19T04:46:56.646Z,1004.03
2018-12-19T04:47:56.648Z,1003.99
2018-12-19T04:48:56.649Z,1003.99
2018-12-19T04:49:56.654Z,1003.97
2018-12-19T04:50:56.662Z,1004.00
2018-12-19T04:51:56.688Z,1004.01
2018-12-19T04:52:56.669Z,1004.05
2018-12-19T04:53:56.672Z,1004.14
2018-12-19T04:54:56.675Z,1004.11
2018-12-19T04:55:56.678Z,1004.09
2018-12-19T04:56:56.683Z,1004.08
2018-12-19T04:57:56.687Z,1004.09
2018-12-19T04:58:56.684Z,1004.08
2018-12-19T04:59:56.687Z,1004.10
2018-12-19T05:00:56.695Z,1004.13
2018-12-19T05:01:56.706Z,1004.13
2018-12-19T05:02:56.699Z,1004.11
2018-12-19T05:03:56.714Z,1004.10
2018-12-19T05:04:56.705Z,1004.08
2018-12-19T05:05:56.717Z,1004.02
2018-12-19T05:06:56.721Z,1003.98
2018-12-19T05:07:56.722Z,1004.08
2018-12-19T05:08:56.721Z,1004.09
2018-12-19T05:09:56.732Z,1004.12
2018-12-19T05:10:56.738Z,1004.16
2018-12-19T05:11:56.734Z,1004.22
2018-12-19T05:12:56.739Z,1004.18
2018-12-19T05:13:56.743Z,1004.26
2018-12-19T05:14:56.746Z,1004.22
2018-12-19T05:15:56.750Z,1004.26
2018-12-19T05:16:56.758Z,1004.22
2018-12-19T05:17:56.759Z,1004.23
2018-12-19T05:18:56.777Z,1004.23
2018-12-19T05:19:56.765Z,1004.23
2018-12-19T05:20:56.766Z,1004.24
2018-12-19T05:21:56.767Z,1004.30
2018-12-19T05:22:56.778Z,1004.28
2018-12-19T05:23:56.786Z,1004.27
2018-12-19T05:24:56.792Z,1004.31
2018-12-19T05:25:56.786Z,1004.33
2018-12-19T05:26:56.779Z,1004.36
2018-12-19T05:27:56.787Z,1004.39
2018-12-19T05:28:56.792Z,1004.41
2018-12-19T05:29:56.794Z,1004.46
2018-12-19T05:30:56.795Z,1004.46
2018-12-19T05:31:56.806Z,1004.45
2018-12-19T05:32:56.800Z,1004.48
2018-12-19T05:33:56.809Z,1004.45
2018-12-19T05:34:56.820Z,1004.44
2018-12-19T05:35:56.823Z,1004.45
2018-12-19T05:36:56.834Z,1004.48
2018-12-19T05:37:56.832Z,1004.45
2018-12-19T05:38:56.838Z,1004.43
2018-12-19T05:39:56.848Z,1004.41
2018-12-19T05:40:56.834Z,1004.41
2018-12-19T05:41:56.840Z,1004.45
2018-12-19T05:42:56.844Z,1004.36
2018-12-19T05:43:56.850Z,1004.37
2018-12-19T05:44:56.855Z,1004.40
2018-12-19T05:45:56.865Z,1004.46
2018-12-19T05:46:56.876Z,1004.46
2018-12-19T05:47:56.863Z,1004.46
2018-12-19T05:48:56.868Z,1004.51
2018-12-19T05:49:56.875Z,1004.49
2018-12-19T05:50:56.878Z,1004.52
2018-12-19T05:51:56.892Z,1004.54
2018-12-19T05:52:56.879Z,1004.53
2018-12-19T05:53:56.885Z,1004.54
2018-12-19T05:54:56.892Z,1004.57
2018-12-19T05:55:56.895Z,1004.58
2018-12-19T05:56:56.906Z,1004.61
2018-12-19T05:57:56.895Z,1004.60
2018-12-19T05:58:56.900Z,1004.58
2018-12-19T05:59:56.914Z,1004.63
2018-12-19T06:00:56.908Z,1004.65
2018-12-19T06:01:56.912Z,1004.61
2018-12-19T06:02:56.919Z,1004.60
2018-12-19T06:03:56.922Z,1004.60
2018-12-19T06:04:56.927Z,1004.68
2018-12-19T06:05:57.000Z,1004.65
2018-12-19T06:06:56.938Z,1004.59
2018-12-19T06:07:56.935Z,1004.54
2018-12-19T06:08:56.985Z,1004.60
2018-12-19T06:09:56.949Z,1004.61
2018-12-19T06:10:56.956Z,1004.59
2018-12-19T06:11:56.953Z,1004.65
2018-12-19T06:12:56.961Z,1004.62
2018-12-19T06:13:56.959Z,1004.59
2018-12-19T06:14:56.967Z,1004.58
2018-12-19T06:15:56.957Z,1004.66
2018-12-19T06:16:56.968Z,1004.59
2018-12-19T06:17:56.972Z,1004.62
2018-12-19T06:18:56.987Z,1004.51
2018-12-19T06:19:56.987Z,1004.56
2018-12-19T06:20:56.984Z,1004.50
2018-12-19T06:21:56.992Z,1004.58
2018-12-19T06:22:56.991Z,1004.60
2018-12-19T06:23:56.995Z,1004.64
2018-12-19T06:24:56.998Z,1004.63
2018-12-19T06:25:57.076Z,1004.65
2018-12-19T06:26:57.032Z,1004.65
2018-12-19T06:27:57.017Z,1004.65
2018-12-19T06:28:57.009Z,1004.65
2018-12-19T06:29:57.007Z,1004.52
2018-12-19T06:30:57.015Z,1004.63
2018-12-19T06:31:57.019Z,1004.65
2018-12-19T06:32:57.046Z,1004.67
2018-12-19T06:33:57.033Z,1004.60
2018-12-19T06:34:57.035Z,1004.58
2018-12-19T06:35:57.031Z,1004.63
2018-12-19T06:36:57.049Z,1004.63
2018-12-19T06:37:57.050Z,1004.71
2018-12-19T06:38:57.177Z,1004.76
2018-12-19T06:39:57.054Z,1004.73
2018-12-19T06:40:57.043Z,1004.61
2018-12-19T06:41:57.060Z,1004.58
2018-12-19T06:42:57.060Z,1004.63
2018-12-19T06:43:57.068Z,1004.73
2018-12-19T06:44:57.068Z,1004.74
2018-12-19T06:45:58.387Z,1004.84
2018-12-19T06:46:57.084Z,1004.73
2018-12-19T06:47:57.076Z,1004.74
2018-12-19T06:48:57.087Z,1004.71
2018-12-19T06:49:57.085Z,1004.74
2018-12-19T06:50:57.089Z,1004.86
2018-12-19T06:51:57.081Z,1004.83
2018-12-19T06:52:57.111Z,1004.85
2018-12-19T06:53:57.209Z,1004.84
2018-12-19T06:54:57.100Z,1004.86
2018-12-19T06:55:57.097Z,1004.86
2018-12-19T06:56:57.108Z,1004.88
2018-12-19T06:57:57.105Z,1004.88
2018-12-19T06:58:57.120Z,1004.92
2018-12-19T06:59:57.118Z,1004.92
2018-12-19T07:00:57.120Z,1004.98
2018-12-19T07:01:57.121Z,1004.95
2018-12-19T07:02:57.152Z,1004.93
2018-12-19T07:03:57.131Z,1004.79
2018-12-19T07:04:57.136Z,1004.91
2018-12-19T07:05:57.154Z,1004.91
2018-12-19T07:06:57.146Z,1004.84
2018-12-19T07:07:57.153Z,1004.89
2018-12-19T07:08:57.153Z,1004.89
2018-12-19T07:09:57.167Z,1004.92
2018-12-19T07:10:57.158Z,1004.97
2018-12-19T07:11:57.162Z,1004.96
2018-12-19T07:12:57.168Z,1004.95
2018-12-19T07:13:57.198Z,1004.95
2018-12-19T07:14:57.193Z,1004.82
2018-12-19T07:15:57.172Z,1004.84
2018-12-19T07:16:57.178Z,1004.98
2018-12-19T07:17:57.173Z,1004.99
2018-12-19T07:18:57.186Z,1004.96
2018-12-19T07:19:57.183Z,1004.97
2018-12-19T07:20:57.193Z,1005.01
2018-12-19T07:21:57.246Z,1005.06
2018-12-19T07:22:57.197Z,1005.06
2018-12-19T07:23:57.210Z,1005.02
2018-12-19T07:24:57.268Z,1005.09
2018-12-19T07:25:57.212Z,1004.99
2018-12-19T07:26:57.201Z,1005.05
2018-12-19T07:27:57.212Z,1005.08
2018-12-19T07:28:57.216Z,1005.14
2018-12-19T07:29:57.227Z,1005.12
2018-12-19T07:30:57.224Z,1005.16
2018-12-19T07:31:57.222Z,1005.17
2018-12-19T07:32:57.234Z,1005.11
2018-12-19T07:33:57.237Z,1005.16
2018-12-19T07:34:57.240Z,1005.19
2018-12-19T07:35:57.241Z,1005.22
2018-12-19T07:36:57.247Z,1005.22
2018-12-19T07:37:57.242Z,1005.22
2018-12-19T07:38:57.252Z,1005.21
2018-12-19T07:39:57.269Z,1005.21
2018-12-19T07:40:57.260Z,1005.22
2018-12-19T07:41:57.262Z,1005.24
2018-12-19T07:42:57.276Z,1005.21
2018-12-19T07:43:57.270Z,1005.31
2018-12-19T07:44:57.272Z,1005.31
2018-12-19T07:45:57.276Z,1005.29
2018-12-19T07:46:57.281Z,1005.24
2018-12-19T07:47:57.300Z,1005.31
2018-12-19T07:48:57.287Z,1005.31
2018-12-19T07:49:57.288Z,1005.33
2018-12-19T07:50:57.293Z,1005.29
2018-12-19T07:52:57.293Z,1005.36
2018-12-19T07:53:57.297Z,1005.27
2018-12-19T07:54:57.305Z,1005.25
2018-12-19T07:55:57.308Z,1005.33
2018-12-19T07:56:57.313Z,1005.31
2018-12-19T07:57:57.316Z,1005.36
2018-12-19T07:58:57.333Z,1005.30
2018-12-19T07:59:57.327Z,1005.30
2018-12-19T08:00:57.324Z,1005.37
2018-12-19T08:01:57.329Z,1005.23
2018-12-19T08:02:57.345Z,1005.30
2018-12-19T08:03:57.338Z,1005.38
2018-12-19T08:04:57.348Z,1005.35
2018-12-19T08:05:57.345Z,1005.38
2018-12-19T08:06:57.350Z,1005.34
2018-12-19T08:07:57.356Z,1005.41
2018-12-19T08:08:57.353Z,1005.40
2018-12-19T08:09:57.355Z,1005.41
2018-12-19T08:10:57.361Z,1005.45
2018-12-19T08:11:57.353Z,1005.44
2018-12-19T08:12:57.370Z,1005.48
2018-12-19T08:13:57.372Z,1005.57
2018-12-19T08:14:57.372Z,1005.50
2018-12-19T08:15:57.384Z,1005.52
2018-12-19T08:16:57.385Z,1005.59
2018-12-19T08:18:57.388Z,1005.60
2018-12-19T08:19:57.403Z,1005.59
2018-12-19T08:20:57.396Z,1005.61
2018-12-19T08:21:57.395Z,1005.58
2018-12-19T08:22:57.401Z,1005.65
2018-12-19T08:23:57.395Z,1005.59
2018-12-19T08:24:57.407Z,1005.59
2018-12-19T08:25:57.414Z,1005.59
2018-12-19T08:26:57.412Z,1005.61
2018-12-19T08:27:57.417Z,1005.62
2018-12-19T08:28:57.424Z,1005.65
2018-12-19T08:29:57.426Z,1005.59
2018-12-19T08:30:57.432Z,1005.60
2018-12-19T08:31:57.434Z,1005.64
2018-12-19T08:32:57.430Z,1005.66
2018-12-19T08:33:57.442Z,1005.67
2018-12-19T08:34:57.443Z,1005.67
2018-12-19T08:35:57.449Z,1005.70
2018-12-19T08:36:57.440Z,1005.75
2018-12-19T08:37:57.456Z,1005.70
2018-12-19T08:38:57.472Z,1005.76
2018-12-19T08:39:57.464Z,1005.77
2018-12-19T08:40:58.830Z,1005.79
2018-12-19T08:41:57.462Z,1005.74
2018-12-19T08:42:57.467Z,1005.80
2018-12-19T08:43:57.470Z,1005.79
2018-12-19T08:44:57.487Z,1005.85
2018-12-19T08:45:57.482Z,1005.87
2018-12-19T08:46:57.481Z,1005.83
2018-12-19T08:47:57.477Z,1005.86
2018-12-19T08:48:57.488Z,1005.83
2018-12-19T08:49:57.488Z,1005.84
2018-12-19T08:50:57.493Z,1005.92
2018-12-19T08:51:57.493Z,1005.89
2018-12-19T08:52:57.510Z,1005.90
2018-12-19T08:53:57.498Z,1005.92
2018-12-19T08:54:57.511Z,1005.96
2018-12-19T08:56:57.516Z,1005.98
2018-12-19T08:57:57.529Z,1005.95
2018-12-19T08:58:57.525Z,1005.99
2018-12-19T08:59:57.524Z,1006.01
2018-12-19T09:00:57.531Z,1006.01
2018-12-19T09:01:57.530Z,1006.00
2018-12-19T09:02:57.546Z,1006.00
2018-12-19T09:03:57.536Z,1006.00
2018-12-19T09:04:57.545Z,1005.99
2018-12-19T09:05:57.544Z,1005.99
2018-12-19T09:06:57.560Z,1006.02
2018-12-19T09:07:57.549Z,1005.97
2018-12-19T09:08:57.583Z,1006.04
2018-12-19T09:09:57.559Z,1006.03
2018-12-19T09:10:57.561Z,1006.04
2018-12-19T09:11:57.557Z,1006.04
2018-12-19T09:12:57.578Z,1006.07
2018-12-19T09:13:57.591Z,1006.02
2018-12-19T09:14:57.573Z,1006.03
2018-12-19T09:15:57.572Z,1006.05
2018-12-19T09:16:57.582Z,1006.03
2018-12-19T09:17:57.587Z,1006.09
2018-12-19T09:18:57.587Z,1006.05
2018-12-19T09:19:57.603Z,1006.12
2018-12-19T09:20:57.600Z,1006.14
2018-12-19T09:21:57.607Z,1006.14
2018-12-19T09:22:57.600Z,1006.12
2018-12-19T09:23:57.616Z,1006.13
2018-12-19T09:24:57.625Z,1006.09
2018-12-19T09:25:57.621Z,1006.16
2018-12-19T09:26:57.626Z,1006.14
2018-12-19T09:27:57.637Z,1006.11
2018-12-19T09:28:57.631Z,1006.13
2018-12-19T09:29:57.627Z,1006.23
2018-12-19T09:30:57.635Z,1006.06
2018-12-19T09:31:57.643Z,1006.17
2018-12-19T09:32:57.654Z,1006.25
2018-12-19T09:33:57.644Z,1006.21
2018-12-19T09:34:57.668Z,1006.29
2018-12-19T09:35:57.660Z,1006.24
2018-12-19T09:36:57.659Z,1006.28
2018-12-19T09:37:57.658Z,1006.33
2018-12-19T09:38:57.660Z,1006.31
2018-12-19T09:39:57.664Z,1006.36
2018-12-19T09:40:57.669Z,1006.35
2018-12-19T09:41:57.674Z,1006.37
2018-12-19T09:42:57.691Z,1006.38
2018-12-19T09:43:57.679Z,1006.38
2018-12-19T09:44:57.685Z,1006.32
2018-12-19T09:45:57.677Z,1006.41
2018-12-19T09:46:57.681Z,1006.37
2018-12-19T09:47:57.691Z,1006.42
2018-12-19T09:48:57.695Z,1006.41
2018-12-19T09:49:57.701Z,1006.41
2018-12-19T09:50:57.713Z,1006.46
2018-12-19T09:51:57.711Z,1006.42
2018-12-19T09:52:57.720Z,1006.52
2018-12-19T09:53:57.717Z,1006.47
2018-12-19T09:54:57.727Z,1006.40
2018-12-19T09:55:57.868Z,1006.47
2018-12-19T09:56:57.738Z,1006.40
2018-12-19T09:57:57.752Z,1006.47
2018-12-19T09:58:57.755Z,1006.49
2018-12-19T09:59:57.762Z,1006.42
2018-12-19T10:00:57.752Z,1006.49
2018-12-19T10:01:57.754Z,1006.47
2018-12-19T10:02:57.760Z,1006.49
2018-12-19T10:03:58.785Z,1006.42
2018-12-19T10:04:57.797Z,1006.48
2018-12-19T10:05:57.764Z,1006.46
2018-12-19T10:06:57.773Z,1006.48
2018-12-19T10:07:57.783Z,1006.50
2018-12-19T10:08:57.924Z,1006.51
2018-12-19T10:10:57.933Z,1006.42
2018-12-19T10:11:57.797Z,1006.51
2018-12-19T10:13:57.807Z,1006.54
2018-12-19T10:14:57.818Z,1006.51
2018-12-19T10:16:57.820Z,1006.58
2018-12-19T10:17:57.828Z,1006.61
2018-12-19T10:18:57.836Z,1006.59
2018-12-19T10:19:57.842Z,1006.55
2018-12-19T10:20:57.845Z,1006.47
2018-12-19T10:21:57.856Z,1006.49
2018-12-19T10:22:57.853Z,1006.47
2018-12-19T10:23:57.915Z,1006.51
2018-12-19T10:24:57.864Z,1006.58
2018-12-19T10:25:57.870Z,1006.58
2018-12-19T10:26:57.873Z,1006.55
2018-12-19T10:27:57.894Z,1006.47
2018-12-19T10:28:57.888Z,1006.33
2018-12-19T10:29:57.892Z,1006.25
2018-12-19T10:30:57.901Z,1006.29
2018-12-19T10:31:59.666Z,1006.33
2018-12-19T10:32:57.908Z,1006.32
2018-12-19T10:33:57.928Z,1006.28
2018-12-19T10:34:57.909Z,1006.31
2018-12-19T10:35:57.996Z,1006.38
2018-12-19T10:36:57.927Z,1006.37
2018-12-19T10:37:57.928Z,1006.42
2018-12-19T10:38:57.937Z,1006.47
2018-12-19T10:39:57.950Z,1006.35
2018-12-19T10:40:57.956Z,1006.39
2018-12-19T10:41:57.955Z,1006.35
2018-12-19T10:42:57.961Z,1006.41
2018-12-19T10:43:57.959Z,1006.45
2018-12-19T10:44:57.970Z,1006.44
2018-12-19T10:45:57.974Z,1006.39
2018-12-19T10:46:57.984Z,1006.34
2018-12-19T10:47:57.995Z,1006.33
2018-12-19T10:48:57.995Z,1006.46
2018-12-19T10:49:58.000Z,1006.41
2018-12-19T10:50:58.022Z,1006.34
2018-12-19T10:51:58.007Z,1006.32
2018-12-19T10:52:58.029Z,1006.31
2018-12-19T10:53:58.012Z,1006.47
2018-12-19T10:54:58.025Z,1006.31
2018-12-19T10:55:58.027Z,1006.33
2018-12-19T10:56:58.043Z,1006.48
2018-12-19T10:57:58.043Z,1006.25
2018-12-19T10:58:58.048Z,1006.29
2018-12-19T10:59:58.058Z,1006.38
2018-12-19T11:00:58.059Z,1006.42
2018-12-19T11:01:58.062Z,1006.19
2018-12-19T11:02:58.067Z,1006.26
2018-12-19T11:03:58.072Z,1006.30
2018-12-19T11:04:58.085Z,1006.41
2018-12-19T11:05:58.083Z,1006.35
2018-12-19T11:06:58.086Z,1006.32
2018-12-19T11:07:58.097Z,1006.27
2018-12-19T11:08:58.096Z,1006.32
2018-12-19T11:09:58.110Z,1006.36
2018-12-19T11:10:58.131Z,1006.30
2018-12-19T11:11:58.117Z,1006.26
2018-12-19T11:12:58.131Z,1006.25
2018-12-19T11:13:58.130Z,1006.27
2018-12-19T11:14:58.139Z,1006.32
2018-12-19T11:15:58.140Z,1006.31
2018-12-19T11:16:58.151Z,1006.26
2018-12-19T11:17:58.145Z,1006.39
2018-12-19T11:18:58.152Z,1006.30
2018-12-19T11:19:58.171Z,1006.39
2018-12-19T11:20:58.173Z,1006.42
2018-12-19T11:21:58.182Z,1006.37
2018-12-19T11:23:00.203Z,1006.45
2018-12-19T11:24:58.195Z,1006.52
2018-12-19T11:25:58.188Z,1006.47
2018-12-19T11:26:58.234Z,1006.38
2018-12-19T11:27:58.223Z,1006.37
2018-12-19T11:28:58.233Z,1006.46
2018-12-19T11:30:58.208Z,1006.39
2018-12-19T11:31:58.227Z,1006.41
2018-12-19T11:32:58.232Z,1006.30
2018-12-19T11:33:58.242Z,1006.34
2018-12-19T11:34:58.237Z,1006.21
2018-12-19T11:35:58.246Z,1006.31
2018-12-19T11:36:58.250Z,1006.24
2018-12-19T11:37:58.257Z,1006.24
2018-12-19T11:38:58.264Z,1006.07
2018-12-19T11:39:58.289Z,1006.17
2018-12-19T11:40:58.264Z,1006.22
2018-12-19T11:41:58.277Z,1006.22
2018-12-19T11:42:58.282Z,1006.18
2018-12-19T11:43:58.289Z,1006.25
2018-12-19T11:44:58.293Z,1006.27
2018-12-19T11:45:58.298Z,1006.19
2018-12-19T11:46:58.308Z,1006.33
2018-12-19T11:47:58.317Z,1006.28
2018-12-19T11:48:58.316Z,1006.22
2018-12-19T11:49:58.325Z,1006.27
2018-12-19T11:50:58.333Z,1006.22
2018-12-19T11:51:58.337Z,1006.25
2018-12-19T11:52:58.383Z,1006.31
2018-12-19T11:53:58.352Z,1006.26
2018-12-19T11:54:58.347Z,1006.27
2018-12-19T11:55:58.358Z,1006.17
2018-12-19T11:56:58.389Z,1006.14
2018-12-19T11:57:58.365Z,1006.24
2018-12-19T11:58:58.383Z,1006.11
2018-12-19T11:59:58.375Z,1006.10
2018-12-19T12:00:58.389Z,1006.22
2018-12-19T12:01:58.392Z,1006.23
2018-12-19T12:02:58.426Z,1006.23
2018-12-19T12:03:58.402Z,1006.16
2018-12-19T12:04:58.407Z,1006.11
2018-12-19T12:05:58.419Z,1006.21
2018-12-19T12:06:58.430Z,1006.15
2018-12-19T12:07:58.425Z,1006.19
2018-12-19T12:08:58.506Z,1006.19
2018-12-19T12:09:58.442Z,1006.18
2018-12-19T12:10:58.454Z,1006.19
2018-12-19T12:11:58.441Z,1006.15
2018-12-19T12:12:58.445Z,1006.16
2018-12-19T12:14:58.468Z,1006.15
2018-12-19T12:15:58.475Z,1006.21
2018-12-19T12:16:58.480Z,1006.14
2018-12-19T12:17:58.503Z,1006.19
2018-12-19T12:18:58.494Z,1006.20
2018-12-19T12:19:58.507Z,1006.17
2018-12-19T12:20:58.503Z,1006.17
2018-12-19T12:22:58.524Z,1006.12